Ana Sayfa
METAR-TAF:

METAR-TAF

Havaalanları :

Clines Corners, New Mexico, Amerika Birleşik Devletleri

Enlem: 35-00N, Boylam: 105-40W, yükseklik: 2160 m

Güncel hava durumu gözlemi

Rapor saat 10:53 UTC de 1 saat ve 1 dakika önce yapıldı.
Rüzgar güneydan 9 kt
Sıcaklık 16°C
Nem 63%
Basınç 1019 hPa
Görüş mesafesi: 16.1 km
Açık gökyüzü

METAR: KCQC 161053Z AUTO 19009KT 10SM CLR 16/09 A3008 RMK AO2 SLP076 T01560094

Saat: 05:54 (11:54 UTC)


TAF: eksik

4.000'den fazla havaalanı için hava durumu gözlemleri ve tahminleri (METAR ve TAF raporları).

Kullanılabilir istasyonlar harita üzerinde sarı ve kırmızı noktalarla gösterilir.

İstasyonun adını görmek için fareyi noktanın üzerinde gezdirin.

Sonrasında hava gözlem ve tahminlerini görmek için tıklayın.

Haritayı değiştirmek için: yaklaştırmak için siyah artı işaretli yeşil düğmeye ve uzaklaştırmak için de eksi işaretli düğmeye hızla tıklayın; bitişik haritalar için yeşil okları kullanın.


METAR-TAF: